createdAt,value
2024-03-12T00:01:09.847Z,101016.84
2024-03-12T00:03:44.256Z,101027.31
2024-03-12T00:06:12.082Z,101022.03
2024-03-12T00:08:40.787Z,101028.22
2024-03-12T00:11:09.063Z,101022.00
2024-03-12T00:13:36.336Z,101034.06
2024-03-12T00:16:04.494Z,101035.81
2024-03-12T00:18:34.226Z,101026.22
2024-03-12T00:21:04.590Z,101038.41
2024-03-12T00:23:31.611Z,101042.91
2024-03-12T00:25:58.586Z,101048.09
2024-03-12T00:28:25.629Z,101047.13
2024-03-12T00:30:55.460Z,101052.34
2024-03-12T00:33:23.476Z,101052.31
2024-03-12T00:35:50.502Z,101054.88
2024-03-12T00:38:19.220Z,101060.03
2024-03-12T00:40:48.150Z,101055.69
2024-03-12T00:43:15.462Z,101067.00
2024-03-12T00:45:42.891Z,101074.75
2024-03-12T00:48:16.769Z,101075.69
2024-03-12T00:50:46.532Z,101073.78
2024-03-12T00:53:14.412Z,101075.69
2024-03-12T00:55:42.204Z,101069.63
2024-03-12T00:58:13.622Z,101084.44
2024-03-12T01:00:42.248Z,101092.25
2024-03-12T01:03:10.362Z,101094.09
2024-03-12T01:05:39.076Z,101087.09
2024-03-12T01:08:07.174Z,101101.91
2024-03-12T01:10:35.757Z,101100.22
2024-03-12T01:13:10.417Z,101098.44
2024-03-12T01:15:38.329Z,101105.31
2024-03-12T01:18:08.223Z,101101.78
2024-03-12T01:20:36.225Z,101106.22
2024-03-12T01:23:06.449Z,101110.44
2024-03-12T01:25:36.565Z,101104.38
2024-03-12T01:28:06.385Z,101111.50
2024-03-12T01:30:34.959Z,101112.06
2024-03-12T01:33:03.771Z,101114.63
2024-03-12T01:35:31.676Z,101111.09
2024-03-12T01:37:59.403Z,101112.13
2024-03-12T01:40:28.639Z,101112.97
2024-03-12T01:43:05.141Z,101116.19
2024-03-12T01:45:34.636Z,101114.69
2024-03-12T01:48:12.194Z,101125.94
2024-03-12T01:50:40.644Z,101128.84
2024-03-12T01:53:08.821Z,101124.19
2024-03-12T01:55:43.401Z,101128.75
2024-03-12T01:58:13.839Z,101128.56
2024-03-12T02:00:40.926Z,101125.81
2024-03-12T02:03:08.147Z,101131.13
2024-03-12T02:05:35.259Z,101141.47
2024-03-12T02:08:02.930Z,101128.53
2024-03-12T02:10:29.936Z,101135.38
2024-03-12T02:12:57.958Z,101140.72
2024-03-12T02:15:25.203Z,101145.81
2024-03-12T02:17:55.595Z,101142.31
2024-03-12T02:20:23.661Z,101141.38
2024-03-12T02:22:56.468Z,101144.81
2024-03-12T02:25:24.703Z,101151.59
2024-03-12T02:27:53.272Z,101144.03
2024-03-12T02:30:21.019Z,101146.34
2024-03-12T02:32:48.618Z,101157.06
2024-03-12T02:35:16.743Z,101155.19
2024-03-12T02:37:44.331Z,101157.84
2024-03-12T02:40:14.892Z,101163.88
2024-03-12T02:42:43.452Z,101164.88
2024-03-12T02:45:18.250Z,101174.19
2024-03-12T02:47:47.209Z,101172.47
2024-03-12T02:50:15.307Z,101163.69
2024-03-12T02:52:43.424Z,101168.03
2024-03-12T02:55:11.208Z,101170.63
2024-03-12T02:57:38.537Z,101167.09
2024-03-12T03:00:14.242Z,101174.00
2024-03-12T03:02:43.419Z,101178.41
2024-03-12T03:05:11.249Z,101174.94
2024-03-12T03:07:39.023Z,101173.13
2024-03-12T03:10:07.414Z,101177.53
2024-03-12T03:12:34.463Z,101171.41
2024-03-12T03:15:01.438Z,101178.41
2024-03-12T03:17:28.412Z,101175.03
2024-03-12T03:19:55.405Z,101181.25
2024-03-12T03:22:22.434Z,101173.06
2024-03-12T03:24:49.499Z,101166.16
2024-03-12T03:27:16.515Z,101173.13
2024-03-12T03:29:44.045Z,101171.41
2024-03-12T03:32:11.052Z,101178.31
2024-03-12T03:34:38.637Z,101170.47
2024-03-12T03:37:05.967Z,101187.94
2024-03-12T03:39:36.956Z,101180.91
2024-03-12T03:42:04.154Z,101187.94
2024-03-12T03:44:31.145Z,101184.28
2024-03-12T03:46:58.098Z,101189.50
2024-03-12T03:49:25.099Z,101179.94
2024-03-12T03:51:53.519Z,101193.81
2024-03-12T03:54:20.674Z,101180.72
2024-03-12T03:56:48.755Z,101198.19
2024-03-12T03:59:17.757Z,101192.13
2024-03-12T04:01:45.039Z,101213.06
2024-03-12T04:04:15.447Z,101213.88
2024-03-12T04:06:46.021Z,101208.56
2024-03-12T04:09:13.100Z,101214.63
2024-03-12T04:11:40.305Z,101220.91
2024-03-12T04:14:08.982Z,101217.25
2024-03-12T04:16:36.069Z,101220.84
2024-03-12T04:19:03.225Z,101221.69
2024-03-12T04:21:30.474Z,101224.34
2024-03-12T04:23:57.468Z,101229.59
2024-03-12T04:26:24.509Z,101233.16
2024-03-12T04:28:51.482Z,101231.38
2024-03-12T04:31:22.059Z,101238.28
2024-03-12T04:33:53.998Z,101237.38
2024-03-12T04:36:24.739Z,101249.53
2024-03-12T04:38:52.082Z,101240.63
2024-03-12T04:41:21.847Z,101252.84
2024-03-12T04:43:52.294Z,101252.00
2024-03-12T04:46:19.607Z,101248.50
2024-03-12T04:48:47.787Z,101255.59
2024-03-12T04:51:15.604Z,101261.72
2024-03-12T04:53:44.710Z,101258.94
2024-03-12T04:56:12.754Z,101262.66
2024-03-12T04:58:40.104Z,101266.22
2024-03-12T05:01:07.522Z,101269.66
2024-03-12T05:03:35.674Z,101272.22
2024-03-12T05:06:02.944Z,101273.16
2024-03-12T05:08:29.965Z,101272.28
2024-03-12T05:10:58.833Z,101272.22
2024-03-12T05:13:27.216Z,101272.22
2024-03-12T05:15:54.199Z,101289.81
2024-03-12T05:18:21.384Z,101288.09
2024-03-12T05:20:48.395Z,101288.03
2024-03-12T05:23:16.086Z,101294.16
2024-03-12T05:25:45.335Z,101285.47
2024-03-12T05:28:13.454Z,101297.66
2024-03-12T05:30:42.307Z,101304.63
2024-03-12T05:33:16.723Z,101315.09
2024-03-12T05:35:52.516Z,101310.69
2024-03-12T05:38:31.781Z,101315.09
2024-03-12T05:41:15.900Z,101319.47
2024-03-12T05:44:01.656Z,101320.31
2024-03-12T05:46:48.379Z,101329.00
2024-03-12T05:49:15.775Z,101334.13
2024-03-12T05:51:43.368Z,101331.56
2024-03-12T05:54:10.880Z,101329.84
2024-03-12T05:56:38.990Z,101334.13
2024-03-12T05:59:06.242Z,101337.69
2024-03-12T06:01:33.662Z,101342.84
2024-03-12T06:04:00.962Z,101341.13
2024-03-12T06:06:28.105Z,101343.81
2024-03-12T06:08:55.579Z,101348.03
2024-03-12T06:11:23.865Z,101349.81
2024-03-12T06:13:50.833Z,101350.72
2024-03-12T06:16:19.681Z,101356.78
2024-03-12T06:18:46.996Z,101354.16
2024-03-12T06:21:14.209Z,101365.47
2024-03-12T06:23:41.870Z,101369.06
2024-03-12T06:26:08.960Z,101373.34
2024-03-12T06:28:37.034Z,101378.53
2024-03-12T06:31:05.323Z,101377.69
2024-03-12T06:33:32.860Z,101373.25
2024-03-12T06:35:59.895Z,101376.81
2024-03-12T06:38:26.917Z,101381.09
2024-03-12T06:40:54.195Z,101381.09
2024-03-12T06:43:22.437Z,101380.13
2024-03-12T06:45:53.764Z,101400.06
2024-03-12T06:48:21.435Z,101401.91
2024-03-12T06:50:48.593Z,101400.81
2024-03-12T06:53:16.640Z,101398.63
2024-03-12T06:55:45.307Z,101383.66
2024-03-12T06:58:13.355Z,101380.69
2024-03-12T07:00:45.843Z,101379.47
2024-03-12T07:03:15.620Z,101370.03
2024-03-12T07:05:48.448Z,101372.84
2024-03-12T07:08:18.990Z,101377.31
2024-03-12T07:10:46.895Z,101374.84
2024-03-12T07:13:14.792Z,101376.75
2024-03-12T07:15:46.320Z,101377.66
2024-03-12T07:18:15.472Z,101376.88
2024-03-12T07:20:42.817Z,101383.19
2024-03-12T07:23:10.044Z,101377.09
2024-03-12T07:25:37.187Z,101375.41
2024-03-12T07:28:08.864Z,101378.16
2024-03-12T07:30:37.221Z,101374.75
2024-03-12T07:33:05.592Z,101383.59
2024-03-12T07:35:36.924Z,101388.06
2024-03-12T07:38:05.048Z,101385.53
2024-03-12T07:40:35.401Z,101385.56
2024-03-12T07:43:05.516Z,101385.59
2024-03-12T07:45:32.908Z,101388.31
2024-03-12T07:48:00.454Z,101395.41
2024-03-12T07:50:32.125Z,101393.66
2024-03-12T07:52:59.222Z,101384.88
2024-03-12T07:55:26.392Z,101397.25
2024-03-12T07:57:53.632Z,101385.84
2024-03-12T08:00:20.954Z,101392.03
2024-03-12T08:02:48.192Z,101390.28
2024-03-12T08:05:15.490Z,101398.25
2024-03-12T08:07:46.173Z,101392.09
2024-03-12T08:10:14.060Z,101394.75
2024-03-12T08:12:41.712Z,101404.50
2024-03-12T08:15:14.455Z,101408.06
2024-03-12T08:17:42.466Z,101405.44
2024-03-12T08:20:14.675Z,101402.75
2024-03-12T08:22:41.839Z,101419.53
2024-03-12T08:25:12.173Z,101407.22
2024-03-12T08:27:41.831Z,101400.19
2024-03-12T08:30:09.890Z,101399.28
2024-03-12T08:32:37.679Z,101389.19
2024-03-12T08:35:06.333Z,101397.41
2024-03-12T08:37:36.862Z,101414.78
2024-03-12T08:40:08.804Z,101412.91
2024-03-12T08:42:44.463Z,101432.59
2024-03-12T08:45:18.565Z,101441.31
2024-03-12T08:47:48.650Z,101440.56
2024-03-12T08:50:17.026Z,101439.53
2024-03-12T08:52:44.169Z,101443.19
2024-03-12T08:55:11.345Z,101441.22
2024-03-12T08:57:38.534Z,101446.56
2024-03-12T09:00:12.353Z,101445.72
2024-03-12T09:02:43.167Z,101449.91
2024-03-12T09:05:10.707Z,101453.53
2024-03-12T09:07:38.438Z,101453.31
2024-03-12T09:10:12.894Z,101457.81
2024-03-12T09:12:42.160Z,101452.69
2024-03-12T09:15:10.447Z,101465.09
2024-03-12T09:17:41.362Z,101467.50
2024-03-12T09:20:12.238Z,101460.41
2024-03-12T09:22:40.687Z,101464.06
2024-03-12T09:25:09.623Z,101469.34
2024-03-12T09:27:36.940Z,101462.28
2024-03-12T09:30:08.257Z,101464.84
2024-03-12T09:32:35.418Z,101470.78
2024-03-12T09:35:04.051Z,101470.97
2024-03-12T09:37:32.188Z,101472.66
2024-03-12T09:40:04.829Z,101472.50
2024-03-12T09:42:33.890Z,101477.78
2024-03-12T09:45:01.390Z,101475.19
2024-03-12T09:47:28.664Z,101484.97
2024-03-12T09:49:57.030Z,101484.03
2024-03-12T09:52:27.040Z,101484.03
2024-03-12T09:54:54.531Z,101481.34
2024-03-12T09:57:24.082Z,101481.34
2024-03-12T09:59:53.217Z,101467.50
2024-03-12T10:02:21.736Z,101477.22
2024-03-12T10:04:51.860Z,101484.69
2024-03-12T10:07:19.011Z,101484.97
2024-03-12T10:09:47.263Z,101470.13
2024-03-12T10:12:20.245Z,101479.00
2024-03-12T10:14:47.278Z,101481.59
2024-03-12T10:17:16.646Z,101472.00
2024-03-12T10:19:50.354Z,101475.91
2024-03-12T10:22:27.816Z,101474.13
2024-03-12T10:25:07.398Z,101468.31
2024-03-12T10:27:34.594Z,101465.94
2024-03-12T10:30:01.748Z,101463.31
2024-03-12T10:32:33.288Z,101462.66
2024-03-12T10:35:00.342Z,101461.19
2024-03-12T10:37:30.816Z,101465.00
2024-03-12T10:40:20.320Z,101461.53
2024-03-12T10:43:04.684Z,101464.47
2024-03-12T10:45:32.634Z,101455.97
2024-03-12T10:48:01.400Z,101451.63
2024-03-12T10:50:28.464Z,101455.88
2024-03-12T10:52:56.435Z,101459.91
2024-03-12T10:55:23.985Z,101461.69
2024-03-12T10:57:56.083Z,101457.47
2024-03-12T11:00:27.128Z,101458.09
2024-03-12T11:02:55.488Z,101457.56
2024-03-12T11:05:31.212Z,101458.38
2024-03-12T11:07:59.936Z,101453.97
2024-03-12T11:10:34.121Z,101446.25
2024-03-12T11:13:02.307Z,101436.94
2024-03-12T11:15:30.067Z,101439.34
2024-03-12T11:17:57.383Z,101438.09
2024-03-12T11:20:28.028Z,101428.56
2024-03-12T11:23:01.317Z,101439.28
2024-03-12T11:25:51.243Z,101421.16
2024-03-12T11:28:22.502Z,101424.72
2024-03-12T11:31:10.067Z,101424.97
2024-03-12T11:33:40.183Z,101420.59
2024-03-12T11:36:10.900Z,101420.59
2024-03-12T11:38:40.141Z,101416.31
2024-03-12T11:41:08.149Z,101409.25
2024-03-12T11:43:40.425Z,101407.34
2024-03-12T11:46:16.697Z,101409.38
2024-03-12T11:48:46.343Z,101405.28
2024-03-12T11:51:14.905Z,101409.75
2024-03-12T11:53:45.278Z,101406.38
2024-03-12T11:56:17.843Z,101398.13
2024-03-12T11:58:57.629Z,101391.06
2024-03-12T12:01:33.548Z,101394.47
2024-03-12T12:04:10.929Z,101382.38
2024-03-12T12:06:38.214Z,101391.47
2024-03-12T12:09:10.267Z,101391.47
2024-03-12T12:11:39.490Z,101387.00
2024-03-12T12:14:09.921Z,101392.22
2024-03-12T12:16:37.946Z,101388.88
2024-03-12T12:19:14.023Z,101388.09
2024-03-12T12:21:46.437Z,101377.69
2024-03-12T12:24:14.813Z,101373.63
2024-03-12T12:26:45.723Z,101374.56
2024-03-12T12:29:15.274Z,101369.22
2024-03-12T12:31:43.302Z,101365.94
2024-03-12T12:34:11.999Z,101362.34
2024-03-12T12:36:44.508Z,101355.19
2024-03-12T12:39:13.460Z,101350.81
2024-03-12T12:41:45.340Z,101359.59
2024-03-12T12:44:23.085Z,101360.34
2024-03-12T12:46:53.637Z,101352.53
2024-03-12T12:49:22.555Z,101349.75
2024-03-12T12:51:51.368Z,101358.44
2024-03-12T12:54:23.021Z,101347.13
2024-03-12T12:56:51.752Z,101344.66
2024-03-12T12:59:24.486Z,101345.38
2024-03-12T13:01:52.001Z,101346.28
2024-03-12T13:04:29.010Z,101338.66
2024-03-12T13:06:58.364Z,101345.75
2024-03-12T13:09:42.442Z,101336.28
2024-03-12T13:12:10.571Z,101327.75
2024-03-12T13:14:43.115Z,101326.97
2024-03-12T13:17:11.172Z,101325.19
2024-03-12T13:19:38.461Z,101318.16
2024-03-12T13:22:13.167Z,101319.84
2024-03-12T13:24:45.108Z,101319.03
2024-03-12T13:27:13.579Z,101307.38
2024-03-12T13:29:43.837Z,101310.09
2024-03-12T13:32:11.549Z,101302.91
2024-03-12T13:34:38.602Z,101306.50
2024-03-12T13:37:08.414Z,101304.75
2024-03-12T13:39:35.734Z,101301.16
2024-03-12T13:42:06.428Z,101311.63
2024-03-12T13:44:33.602Z,101302.69
2024-03-12T13:47:01.338Z,101309.59
2024-03-12T13:49:28.984Z,101302.50
2024-03-12T13:51:56.414Z,101304.28
2024-03-12T13:54:23.552Z,101306.16
2024-03-12T13:56:50.539Z,101300.00
2024-03-12T13:59:18.810Z,101314.88
2024-03-12T14:01:48.538Z,101312.19
2024-03-12T14:04:16.030Z,101320.03
2024-03-12T14:06:43.212Z,101306.09
2024-03-12T14:09:13.648Z,101306.03
2024-03-12T14:11:41.067Z,101318.22
2024-03-12T14:14:11.236Z,101320.84
2024-03-12T14:16:38.449Z,101315.63
2024-03-12T14:19:05.682Z,101312.00
2024-03-12T14:21:34.113Z,101309.34
2024-03-12T14:24:03.814Z,101311.91
2024-03-12T14:26:31.221Z,101313.69
2024-03-12T14:28:59.222Z,101310.16
2024-03-12T14:31:26.383Z,101307.44
2024-03-12T14:33:53.927Z,101304.66
2024-03-12T14:36:21.153Z,101302.75
2024-03-12T14:38:50.867Z,101312.34
2024-03-12T14:41:21.645Z,101315.75
2024-03-12T14:43:48.799Z,101310.38
2024-03-12T14:46:16.687Z,101315.63
2024-03-12T14:48:43.881Z,101304.94
2024-03-12T14:51:11.890Z,101314.41
2024-03-12T14:53:40.689Z,101307.41
2024-03-12T14:56:07.863Z,101310.16
2024-03-12T14:58:34.902Z,101307.56
2024-03-12T15:01:02.143Z,101314.41
2024-03-12T15:03:29.286Z,101302.91
2024-03-12T15:05:56.812Z,101310.78
2024-03-12T15:08:24.361Z,101304.63
2024-03-12T15:10:51.579Z,101304.56
2024-03-12T15:13:19.124Z,101308.03
2024-03-12T15:15:47.215Z,101302.81
2024-03-12T15:18:14.706Z,101307.06
2024-03-12T15:20:43.033Z,101301.75
2024-03-12T15:23:10.310Z,101300.84
2024-03-12T15:25:37.643Z,101299.72
2024-03-12T15:28:05.254Z,101301.47
2024-03-12T15:30:34.578Z,101297.06
2024-03-12T15:33:01.772Z,101294.41
2024-03-12T15:35:29.019Z,101302.34
2024-03-12T15:37:59.493Z,101296.94
2024-03-12T15:40:26.547Z,101296.13
2024-03-12T15:42:53.613Z,101297.78
2024-03-12T15:45:21.929Z,101288.94
2024-03-12T15:47:49.505Z,101296.88
2024-03-12T15:50:17.483Z,101296.81
2024-03-12T15:52:44.905Z,101289.56
2024-03-12T15:55:13.566Z,101290.34
2024-03-12T15:57:41.899Z,101285.84
2024-03-12T16:00:14.742Z,101289.34
2024-03-12T16:02:42.625Z,101284.91
2024-03-12T16:05:09.940Z,101285.66
2024-03-12T16:07:37.430Z,101282.03
2024-03-12T16:10:05.545Z,101285.53
2024-03-12T16:12:33.032Z,101280.25
2024-03-12T16:15:00.080Z,101280.19
2024-03-12T16:17:31.005Z,101275.78
2024-03-12T16:19:58.219Z,101274.78
2024-03-12T16:22:25.277Z,101268.69
2024-03-12T16:24:52.457Z,101278.53
2024-03-12T16:27:19.831Z,101267.03
2024-03-12T16:29:48.223Z,101269.00
2024-03-12T16:32:15.673Z,101263.69
2024-03-12T16:34:43.098Z,101259.16
2024-03-12T16:37:10.516Z,101257.38
2024-03-12T16:39:39.876Z,101259.16
2024-03-12T16:42:07.396Z,101257.25
2024-03-12T16:44:34.455Z,101260.03
2024-03-12T16:47:06.043Z,101252.97
2024-03-12T16:49:34.407Z,101255.44
2024-03-12T16:52:02.417Z,101253.59
2024-03-12T16:54:32.029Z,101250.91
2024-03-12T16:57:03.625Z,101241.22
2024-03-12T16:59:34.715Z,101244.72
2024-03-12T17:02:04.874Z,101242.03
2024-03-12T17:04:32.879Z,101229.66
2024-03-12T17:07:08.956Z,101239.31
2024-03-12T17:09:40.607Z,101232.28
2024-03-12T17:12:10.211Z,101238.31
2024-03-12T17:14:37.390Z,101233.91
2024-03-12T17:17:08.615Z,101240.84
2024-03-12T17:19:38.243Z,101232.13
2024-03-12T17:22:07.154Z,101233.72
2024-03-12T17:24:35.644Z,101225.00
2024-03-12T17:27:09.109Z,101227.56
2024-03-12T17:29:38.125Z,101226.56
2024-03-12T17:32:11.459Z,101228.31
2024-03-12T17:34:39.950Z,101232.63
2024-03-12T17:37:17.874Z,101216.81
2024-03-12T17:39:47.908Z,101220.34
2024-03-12T17:42:21.651Z,101218.34
2024-03-12T17:44:49.691Z,101222.88
2024-03-12T17:47:23.876Z,101228.88
2024-03-12T17:49:54.562Z,101237.59
2024-03-12T17:52:23.477Z,101234.13
2024-03-12T17:54:51.279Z,101230.50
2024-03-12T17:57:18.650Z,101234.88
2024-03-12T17:59:46.027Z,101234.94
2024-03-12T18:02:16.840Z,101225.03
2024-03-12T18:04:44.416Z,101211.94
2024-03-12T18:07:26.282Z,101208.38
2024-03-12T18:09:58.027Z,101225.03
2024-03-12T18:12:25.328Z,101231.16
2024-03-12T18:14:52.360Z,101244.28
2024-03-12T18:17:19.922Z,101237.25
2024-03-12T18:19:47.427Z,101237.22
2024-03-12T18:22:15.231Z,101235.41
2024-03-12T18:24:42.603Z,101232.78
2024-03-12T18:27:12.668Z,101238.03
2024-03-12T18:29:45.934Z,101235.44
2024-03-12T18:32:17.488Z,101235.38
2024-03-12T18:34:46.728Z,101233.59
2024-03-12T18:37:13.797Z,101232.72
2024-03-12T18:39:42.764Z,101232.63
2024-03-12T18:42:11.108Z,101243.13
2024-03-12T18:44:38.324Z,101232.72
2024-03-12T18:47:06.583Z,101234.53
2024-03-12T18:49:35.039Z,101237.97
2024-03-12T18:52:03.415Z,101239.75
2024-03-12T18:54:31.332Z,101237.88
2024-03-12T18:56:58.909Z,101234.41
2024-03-12T18:59:26.448Z,101238.06
2024-03-12T19:01:59.461Z,101224.94
2024-03-12T19:04:33.611Z,101227.63
2024-03-12T19:07:04.488Z,101229.38
2024-03-12T19:09:32.539Z,101226.72
2024-03-12T19:12:01.656Z,101219.81
2024-03-12T19:14:30.998Z,101217.06
2024-03-12T19:17:01.957Z,101209.03
2024-03-12T19:19:30.629Z,101208.19
2024-03-12T19:21:58.501Z,101206.47
2024-03-12T19:24:26.197Z,101220.47
2024-03-12T19:26:54.702Z,101216.88
2024-03-12T19:29:22.549Z,101220.34
2024-03-12T19:31:50.607Z,101211.63
2024-03-12T19:34:18.937Z,101223.03
2024-03-12T19:36:47.693Z,101217.72
2024-03-12T19:39:15.308Z,101210.75
2024-03-12T19:41:46.280Z,101219.47
2024-03-12T19:44:13.973Z,101215.09
2024-03-12T19:46:41.734Z,101218.63
2024-03-12T19:49:14.763Z,101215.09
2024-03-12T19:51:42.462Z,101221.25
2024-03-12T19:54:09.779Z,101230.03
2024-03-12T19:56:37.414Z,101224.63
2024-03-12T19:59:06.051Z,101222.91
2024-03-12T20:01:34.594Z,101222.94
2024-03-12T20:04:02.379Z,101219.44
2024-03-12T20:06:30.341Z,101224.69
2024-03-12T20:09:01.185Z,101222.00
2024-03-12T20:11:28.435Z,101242.28
2024-03-12T20:13:56.309Z,101229.06
2024-03-12T20:16:23.596Z,101234.25
2024-03-12T20:18:50.691Z,101229.03
2024-03-12T20:21:18.037Z,101229.03
2024-03-12T20:23:45.214Z,101236.03
2024-03-12T20:26:12.279Z,101232.47
2024-03-12T20:28:42.287Z,101227.25
2024-03-12T20:31:10.862Z,101225.53
2024-03-12T20:33:39.767Z,101233.41
2024-03-12T20:36:08.450Z,101237.81
2024-03-12T20:38:35.476Z,101243.06
2024-03-12T20:41:02.541Z,101237.81
2024-03-12T20:43:29.630Z,101235.13
2024-03-12T20:45:57.214Z,101242.22
2024-03-12T20:48:24.700Z,101243.06
2024-03-12T20:50:51.688Z,101243.00
2024-03-12T20:53:22.478Z,101250.06
2024-03-12T20:55:49.477Z,101255.31
2024-03-12T20:58:16.469Z,101258.88
2024-03-12T21:00:43.598Z,101252.66
2024-03-12T21:03:10.959Z,101264.09
2024-03-12T21:05:43.043Z,101264.06
2024-03-12T21:08:10.949Z,101264.13
2024-03-12T21:10:39.659Z,101260.56
2024-03-12T21:13:06.735Z,101264.09
2024-03-12T21:15:33.770Z,101264.94
2024-03-12T21:18:01.608Z,101270.28
2024-03-12T21:20:33.192Z,101257.09
2024-03-12T21:23:00.352Z,101258.88
2024-03-12T21:25:27.844Z,101259.78
2024-03-12T21:27:54.990Z,101251.03
2024-03-12T21:30:25.092Z,101252.81
2024-03-12T21:32:53.754Z,101258.06
2024-03-12T21:35:20.908Z,101263.38
2024-03-12T21:37:47.840Z,101262.50
2024-03-12T21:40:17.235Z,101262.50
2024-03-12T21:42:44.859Z,101265.13
2024-03-12T21:45:12.917Z,101271.28
2024-03-12T21:47:41.302Z,101271.28
2024-03-12T21:50:16.336Z,101273.09
2024-03-12T21:52:44.036Z,101273.09
2024-03-12T21:55:12.248Z,101279.31
2024-03-12T21:57:40.956Z,101277.53
2024-03-12T22:00:13.094Z,101277.63
2024-03-12T22:02:40.405Z,101276.72
2024-03-12T22:05:07.568Z,101273.25
2024-03-12T22:07:38.218Z,101270.66
2024-03-12T22:10:09.133Z,101274.13
2024-03-12T22:12:36.425Z,101281.16
2024-03-12T22:15:05.257Z,101279.44
2024-03-12T22:17:32.412Z,101286.41
2024-03-12T22:20:00.753Z,101277.69
2024-03-12T22:22:29.639Z,101278.63
2024-03-12T22:24:56.709Z,101284.75
2024-03-12T22:27:23.926Z,101278.63
2024-03-12T22:29:50.906Z,101287.38
2024-03-12T22:32:22.061Z,101270.84
2024-03-12T22:34:49.250Z,101277.00
2024-03-12T22:37:16.403Z,101281.41
2024-03-12T22:39:43.904Z,101280.53
2024-03-12T22:42:11.648Z,101284.19
2024-03-12T22:44:39.911Z,101280.09
2024-03-12T22:47:09.185Z,101284.47
2024-03-12T22:49:37.187Z,101282.78
2024-03-12T22:52:08.942Z,101283.81
2024-03-12T22:54:36.634Z,101284.75
2024-03-12T22:57:04.925Z,101291.84
2024-03-12T22:59:33.378Z,101288.44
2024-03-12T23:02:04.165Z,101287.59
2024-03-12T23:04:32.257Z,101288.53
2024-03-12T23:06:59.753Z,101289.53
2024-03-12T23:09:27.232Z,101281.75
2024-03-12T23:11:57.325Z,101290.69
2024-03-12T23:14:27.385Z,101288.09
2024-03-12T23:16:54.617Z,101293.47
2024-03-12T23:19:21.819Z,101301.53
2024-03-12T23:21:48.981Z,101301.63
2024-03-12T23:24:16.121Z,101306.09
2024-03-12T23:26:43.753Z,101303.44
2024-03-12T23:29:11.490Z,101308.69
2024-03-12T23:31:38.781Z,101293.78
2024-03-12T23:34:06.932Z,101310.44
2024-03-12T23:36:34.396Z,101299.09
2024-03-12T23:39:01.555Z,101300.88
2024-03-12T23:41:31.022Z,101292.97
2024-03-12T23:43:58.178Z,101308.84
2024-03-12T23:46:25.878Z,101307.19
2024-03-12T23:48:53.377Z,101309.75
2024-03-12T23:51:20.492Z,101311.50
2024-03-12T23:53:47.550Z,101302.75
2024-03-12T23:56:14.666Z,101308.00
2024-03-12T23:58:41.696Z,101306.25
